SBGLSBVT

Guest
Details From SBGL - Galeao Antonio Carlos Jombim
To SBVT - Goiabeiras
Flight Number -
Tags generated
Created
Modified
Stats Distance 228 nm / 422 km
Max Altitude 21,600 ft / 6,584 m
Waypoints 4
Social Downloads 1
Likes 0
Share VATSIM

Download

Looking for another format? Having issues loading an existing format? Contact us
Advertisement - Login to hide

Notes

Basic altitude profile: - Ascent Rate: 2500ft/min - Ascent Speed: 250kts - Cruise Altitude: 35000ft - Cruise Speed: 420kts - Descent Rate: 1500ft/min - Descent Speed: 250kts Options: - Use NATs: no - Use PACOTS: no - Use low airways: no - Use high airways: yes

Route

SBGL PCX UL327 PANAS SBVT

ID Type Via Altitude Latitude Longitude Leg Dist Tot Dist Heading (true) Name
O SBGL APT - 0 ft / 0 m -22.80894˚ -43.24368˚ - 0 nm - Galeao Antonio Carlos Jombim
PCX VOR - 7,800 ft / 2,377 m -22.71533˚ -42.85750˚ 22 nm 22 nm 75° / 75° PORTO VOR-DME
PANAS FIX UL327 (AWY-HI) 21,600 ft / 6,584 m -21.46717˚ -41.53883˚ 104 nm 127 nm 45° / 44° -
O SBVT APT - 0 ft / 0 m -20.25561˚ -40.28889˚ 101 nm 228 nm 44° / 44° Goiabeiras

Altitude Profile

Advertisement - Login to hide

Weather


0- 5 10 15 20 25 30 35+ Temperature / ° C

Clouds and Precipitation
Forecast for 2018-06-21 06:00 UTC. Updated 5 hours ago

Ground ~20,000 ft ~40,000 ft Winds

SBGL

Details ICAO SBGL (GIG)
Name Galeao Antonio Carlos Jombim
Region Brazil
Timezone America/Sao_Paulo (UTC-3.0)
Stats Elevation 28 ft / 9 m (AMSL)
Location -22.808938° -43.243681°
Runways 2
Magnetic Variation 22.819° W

METAR

SBGL 210800Z 08002KT 9000 FEW005 17/16 Q1020

Decode

TAF

TAF SBGL 210230Z 2106/2212 34005KT CAVOK TN18/2110Z TX28/2117Z BECMG 2106/2108 4000 BR SCT007 BECMG 2113/2115 06005KT CAVOK BECMG 2116/2118 14010KT BECMG 2200/2202 34005KT RMK PHI

Decode

Departure Runways

ID Width Length Bearing (true) Bearing (mag) Surface Threshold Offset Overrun Length
10 148 ft / 45 m 13,128 ft / 4,001 m 74.39° 97.21° Concrete 0 ft / 0 m 175 ft / 53 m
15 154 ft / 47 m 10,418 ft / 3,175 m 125.78° 148.60° Asphalt 0 ft / 0 m 185 ft / 56 m
28 148 ft / 45 m 13,128 ft / 4,001 m 254.38° 277.20° Concrete 0 ft / 0 m 175 ft / 53 m
33 154 ft / 47 m 10,418 ft / 3,175 m 305.78° 328.60° Asphalt 0 ft / 0 m 185 ft / 56 m

SBVT

Details ICAO SBVT (VIX)
Name Goiabeiras
Region Brazil
Timezone America/Sao_Paulo (UTC-3.0)
Stats Elevation 11 ft / 3 m (AMSL)
Location -20.255611° -40.288893°
Runways 1
Magnetic Variation 23.834° W

METAR

SBVT 210800Z 35002KT 9999 FEW020 SCT100 19/18 Q1021

Decode

TAF

TAF SBVT 210100Z 2106/2206 30005KT 9999 SCT025 TN19/2108Z TX25/2116Z BECMG 2113/2115 15006KT RMK PEA

Decode

Destination Runways

ID Width Length Bearing (true) Bearing (mag) Surface Threshold Offset Overrun Length
05 148 ft / 45 m 5,769 ft / 1,759 m 31.71° 55.54° Asphalt 0 ft / 0 m 189 ft / 58 m
23 148 ft / 45 m 5,769 ft / 1,759 m 211.71° 235.54° Asphalt 0 ft / 0 m 189 ft / 58 m

Popular Alternatives